Aviation Digital Data Service (ADDS)

Output produced by METARs form (0126 UTC 01 August 2015)
found at http://aviationweather.gov/adds/metars/
 
KISP 312320Z 0100/0124 30006KT P6SM SKC 
     FM010100 24004KT P6SM SKC 
     FM011400 25008KT P6SM FEW150 
     FM011700 24012G20KT P6SM SCT060 
     FM012200 25009KT P6SM SCT060